sensor_id;sensor_type;location;lat;lon;timestamp;P1;durP1;ratioP1;P2;durP2;ratioP2
13607;SDS011;6875;50.852;5.672;2023-03-16T00:00:56;7.53;;;4.60;;
13607;SDS011;6875;50.852;5.672;2023-03-16T00:03:24;7.43;;;4.97;;
13607;SDS011;6875;50.852;5.672;2023-03-16T00:05:54;6.30;;;5.10;;
13607;SDS011;6875;50.852;5.672;2023-03-16T00:08:20;5.80;;;4.37;;
13607;SDS011;6875;50.852;5.672;2023-03-16T00:10:48;7.23;;;5.23;;
13607;SDS011;6875;50.852;5.672;2023-03-16T00:13:18;6.30;;;4.90;;
13607;SDS011;6875;50.852;5.672;2023-03-16T00:15:50;8.90;;;4.40;;
13607;SDS011;6875;50.852;5.672;2023-03-16T00:18:17;8.73;;;4.63;;
13607;SDS011;6875;50.852;5.672;2023-03-16T00:20:48;9.57;;;5.33;;
13607;SDS011;6875;50.852;5.672;2023-03-16T00:23:15;5.70;;;4.70;;
13607;SDS011;6875;50.852;5.672;2023-03-16T00:25:42;6.27;;;4.73;;
13607;SDS011;6875;50.852;5.672;2023-03-16T00:28:08;9.60;;;4.70;;
13607;SDS011;6875;50.852;5.672;2023-03-16T00:30:38;6.33;;;4.33;;
13607;SDS011;6875;50.852;5.672;2023-03-16T00:33:04;6.20;;;4.20;;
13607;SDS011;6875;50.852;5.672;2023-03-16T00:35:31;6.53;;;4.50;;
13607;SDS011;6875;50.852;5.672;2023-03-16T00:38:00;6.50;;;4.10;;
13607;SDS011;6875;50.852;5.672;2023-03-16T00:40:26;7.00;;;4.67;;
13607;SDS011;6875;50.852;5.672;2023-03-16T00:42:54;6.83;;;4.30;;
13607;SDS011;6875;50.852;5.672;2023-03-16T00:45:21;7.73;;;5.07;;
13607;SDS011;6875;50.852;5.672;2023-03-16T00:47:48;4.40;;;4.00;;
13607;SDS011;6875;50.852;5.672;2023-03-16T00:50:18;6.97;;;4.57;;
13607;SDS011;6875;50.852;5.672;2023-03-16T00:52:46;5.57;;;4.43;;
13607;SDS011;6875;50.852;5.672;2023-03-16T00:55:14;8.87;;;4.83;;
13607;SDS011;6875;50.852;5.672;2023-03-16T00:57:41;6.27;;;4.23;;
13607;SDS011;6875;50.852;5.672;2023-03-16T01:00:08;9.50;;;4.60;;
13607;SDS011;6875;50.852;5.672;2023-03-16T01:02:39;8.70;;;4.50;;
13607;SDS011;6875;50.852;5.672;2023-03-16T01:05:06;5.73;;;3.90;;
13607;SDS011;6875;50.852;5.672;2023-03-16T01:07:34;6.07;;;4.33;;
13607;SDS011;6875;50.852;5.672;2023-03-16T01:10:01;6.03;;;4.43;;
13607;SDS011;6875;50.852;5.672;2023-03-16T01:12:29;10.13;;;4.50;;
13607;SDS011;6875;50.852;5.672;2023-03-16T01:14:55;9.23;;;4.27;;
13607;SDS011;6875;50.852;5.672;2023-03-16T01:17:22;6.43;;;4.10;;
13607;SDS011;6875;50.852;5.672;2023-03-16T01:19:48;6.13;;;4.43;;
13607;SDS011;6875;50.852;5.672;2023-03-16T01:22:15;7.93;;;4.27;;
13607;SDS011;6875;50.852;5.672;2023-03-16T01:24:42;5.70;;;4.33;;
13607;SDS011;6875;50.852;5.672;2023-03-16T01:27:10;5.83;;;4.50;;
13607;SDS011;6875;50.852;5.672;2023-03-16T01:29:39;5.47;;;4.43;;
13607;SDS011;6875;50.852;5.672;2023-03-16T01:32:07;5.57;;;3.97;;
13607;SDS011;6875;50.852;5.672;2023-03-16T01:34:34;5.67;;;4.20;;
13607;SDS011;6875;50.852;5.672;2023-03-16T01:37:01;5.83;;;4.40;;
13607;SDS011;6875;50.852;5.672;2023-03-16T01:39:28;5.43;;;4.20;;
13607;SDS011;6875;50.852;5.672;2023-03-16T01:41:54;6.07;;;4.10;;
13607;SDS011;6875;50.852;5.672;2023-03-16T01:44:22;7.07;;;4.70;;
13607;SDS011;6875;50.852;5.672;2023-03-16T01:46:55;6.20;;;3.83;;
13607;SDS011;6875;50.852;5.672;2023-03-16T01:49:22;6.37;;;4.40;;
13607;SDS011;6875;50.852;5.672;2023-03-16T01:51:51;5.63;;;4.20;;
13607;SDS011;6875;50.852;5.672;2023-03-16T01:54:20;5.50;;;4.37;;
13607;SDS011;6875;50.852;5.672;2023-03-16T01:56:50;7.40;;;4.17;;
13607;SDS011;6875;50.852;5.672;2023-03-16T01:59:21;5.63;;;4.47;;
13607;SDS011;6875;50.852;5.672;2023-03-16T02:01:49;5.97;;;4.27;;
13607;SDS011;6875;50.852;5.672;2023-03-16T02:04:22;7.10;;;4.30;;
13607;SDS011;6875;50.852;5.672;2023-03-16T02:06:54;7.23;;;4.23;;
13607;SDS011;6875;50.852;5.672;2023-03-16T02:09:21;5.80;;;4.50;;
13607;SDS011;6875;50.852;5.672;2023-03-16T02:11:49;7.10;;;4.13;;
13607;SDS011;6875;50.852;5.672;2023-03-16T02:14:16;7.70;;;4.40;;
13607;SDS011;6875;50.852;5.672;2023-03-16T02:16:43;7.50;;;4.50;;
13607;SDS011;6875;50.852;5.672;2023-03-16T02:19:11;7.33;;;4.43;;
13607;SDS011;6875;50.852;5.672;2023-03-16T02:21:45;6.60;;;5.03;;
13607;SDS011;6875;50.852;5.672;2023-03-16T02:24:14;7.27;;;4.60;;
13607;SDS011;6875;50.852;5.672;2023-03-16T02:26:41;7.10;;;4.50;;
13607;SDS011;6875;50.852;5.672;2023-03-16T02:29:15;8.10;;;4.37;;
13607;SDS011;6875;50.852;5.672;2023-03-16T02:31:47;6.47;;;4.67;;
13607;SDS011;6875;50.852;5.672;2023-03-16T02:34:16;6.17;;;4.13;;
13607;SDS011;6875;50.852;5.672;2023-03-16T02:36:43;5.17;;;4.20;;
13607;SDS011;6875;50.852;5.672;2023-03-16T02:39:11;6.40;;;4.43;;
13607;SDS011;6875;50.852;5.672;2023-03-16T02:41:37;5.33;;;4.30;;
13607;SDS011;6875;50.852;5.672;2023-03-16T02:44:06;5.13;;;4.07;;
13607;SDS011;6875;50.852;5.672;2023-03-16T02:46:38;5.40;;;4.50;;
13607;SDS011;6875;50.852;5.672;2023-03-16T02:49:09;7.27;;;4.83;;
13607;SDS011;6875;50.852;5.672;2023-03-16T02:51:40;6.37;;;4.20;;
13607;SDS011;6875;50.852;5.672;2023-03-16T02:54:07;7.40;;;4.80;;
13607;SDS011;6875;50.852;5.672;2023-03-16T02:56:33;7.07;;;4.70;;
13607;SDS011;6875;50.852;5.672;2023-03-16T02:59:00;7.60;;;4.70;;
13607;SDS011;6875;50.852;5.672;2023-03-16T03:01:26;6.20;;;4.40;;
13607;SDS011;6875;50.852;5.672;2023-03-16T03:03:53;6.93;;;4.87;;
13607;SDS011;6875;50.852;5.672;2023-03-16T03:06:21;7.80;;;4.40;;
13607;SDS011;6875;50.852;5.672;2023-03-16T03:08:48;7.23;;;4.30;;
13607;SDS011;6875;50.852;5.672;2023-03-16T03:11:15;5.70;;;4.63;;
13607;SDS011;6875;50.852;5.672;2023-03-16T03:13:43;6.43;;;4.53;;
13607;SDS011;6875;50.852;5.672;2023-03-16T03:16:10;8.80;;;5.27;;
13607;SDS011;6875;50.852;5.672;2023-03-16T03:18:36;7.80;;;4.50;;
13607;SDS011;6875;50.852;5.672;2023-03-16T03:21:03;5.73;;;4.60;;
13607;SDS011;6875;50.852;5.672;2023-03-16T03:23:32;8.03;;;5.20;;
13607;SDS011;6875;50.852;5.672;2023-03-16T03:25:59;7.07;;;4.33;;
13607;SDS011;6875;50.852;5.672;2023-03-16T03:28:27;5.87;;;4.83;;
13607;SDS011;6875;50.852;5.672;2023-03-16T03:30:54;6.10;;;4.30;;
13607;SDS011;6875;50.852;5.672;2023-03-16T03:33:20;9.87;;;4.77;;
13607;SDS011;6875;50.852;5.672;2023-03-16T03:35:52;5.33;;;4.07;;
13607;SDS011;6875;50.852;5.672;2023-03-16T03:38:19;6.80;;;4.47;;
13607;SDS011;6875;50.852;5.672;2023-03-16T03:40:48;5.70;;;4.40;;
13607;SDS011;6875;50.852;5.672;2023-03-16T03:43:15;8.43;;;4.40;;
13607;SDS011;6875;50.852;5.672;2023-03-16T03:45:41;4.97;;;4.30;;
13607;SDS011;6875;50.852;5.672;2023-03-16T03:48:08;6.17;;;4.67;;
13607;SDS011;6875;50.852;5.672;2023-03-16T03:50:35;6.87;;;4.50;;
13607;SDS011;6875;50.852;5.672;2023-03-16T03:53:02;6.93;;;4.60;;
13607;SDS011;6875;50.852;5.672;2023-03-16T03:55:29;6.97;;;4.20;;
13607;SDS011;6875;50.852;5.672;2023-03-16T03:57:56;8.20;;;4.33;;
13607;SDS011;6875;50.852;5.672;2023-03-16T04:00:23;7.60;;;4.60;;
13607;SDS011;6875;50.852;5.672;2023-03-16T04:02:50;5.87;;;4.60;;
13607;SDS011;6875;50.852;5.672;2023-03-16T04:05:17;5.77;;;4.70;;
13607;SDS011;6875;50.852;5.672;2023-03-16T04:07:43;9.20;;;4.50;;
13607;SDS011;6875;50.852;5.672;2023-03-16T04:10:10;8.77;;;4.77;;
13607;SDS011;6875;50.852;5.672;2023-03-16T04:12:36;6.33;;;4.57;;
13607;SDS011;6875;50.852;5.672;2023-03-16T04:15:05;5.67;;;4.20;;
13607;SDS011;6875;50.852;5.672;2023-03-16T04:17:32;8.57;;;4.77;;
13607;SDS011;6875;50.852;5.672;2023-03-16T04:19:59;5.20;;;3.97;;
13607;SDS011;6875;50.852;5.672;2023-03-16T04:22:26;6.40;;;4.27;;
13607;SDS011;6875;50.852;5.672;2023-03-16T04:24:54;6.70;;;4.50;;
13607;SDS011;6875;50.852;5.672;2023-03-16T04:27:20;5.87;;;4.57;;
13607;SDS011;6875;50.852;5.672;2023-03-16T04:29:47;7.23;;;4.90;;
13607;SDS011;6875;50.852;5.672;2023-03-16T04:32:15;6.17;;;4.23;;
13607;SDS011;6875;50.852;5.672;2023-03-16T04:34:41;7.50;;;4.40;;
13607;SDS011;6875;50.852;5.672;2023-03-16T04:37:08;6.37;;;3.80;;
13607;SDS011;6875;50.852;5.672;2023-03-16T04:39:35;8.77;;;4.73;;
13607;SDS011;6875;50.852;5.672;2023-03-16T04:42:02;8.77;;;4.80;;
13607;SDS011;6875;50.852;5.672;2023-03-16T04:44:30;7.63;;;4.33;;
13607;SDS011;6875;50.852;5.672;2023-03-16T04:46:56;5.67;;;4.17;;
13607;SDS011;6875;50.852;5.672;2023-03-16T04:49:25;7.07;;;4.20;;
13607;SDS011;6875;50.852;5.672;2023-03-16T04:51:51;8.03;;;4.53;;
13607;SDS011;6875;50.852;5.672;2023-03-16T04:54:18;7.00;;;4.17;;
13607;SDS011;6875;50.852;5.672;2023-03-16T04:56:45;8.67;;;4.10;;
13607;SDS011;6875;50.852;5.672;2023-03-16T04:59:11;5.57;;;3.83;;
13607;SDS011;6875;50.852;5.672;2023-03-16T05:01:38;5.27;;;4.27;;
13607;SDS011;6875;50.852;5.672;2023-03-16T05:04:04;5.73;;;4.17;;
13607;SDS011;6875;50.852;5.672;2023-03-16T05:06:32;7.10;;;3.63;;
13607;SDS011;6875;50.852;5.672;2023-03-16T05:08:59;6.13;;;4.07;;
13607;SDS011;6875;50.852;5.672;2023-03-16T05:11:26;8.20;;;4.03;;
13607;SDS011;6875;50.852;5.672;2023-03-16T05:13:52;4.93;;;3.83;;
13607;SDS011;6875;50.852;5.672;2023-03-16T05:16:19;5.27;;;3.83;;
13607;SDS011;6875;50.852;5.672;2023-03-16T05:18:45;5.43;;;3.70;;
13607;SDS011;6875;50.852;5.672;2023-03-16T05:21:12;4.53;;;3.37;;
13607;SDS011;6875;50.852;5.672;2023-03-16T05:23:40;8.20;;;4.37;;
13607;SDS011;6875;50.852;5.672;2023-03-16T05:26:06;8.13;;;4.00;;
13607;SDS011;6875;50.852;5.672;2023-03-16T05:28:33;7.67;;;3.73;;
13607;SDS011;6875;50.852;5.672;2023-03-16T05:30:59;6.20;;;3.80;;
13607;SDS011;6875;50.852;5.672;2023-03-16T05:33:27;8.83;;;4.37;;
13607;SDS011;6875;50.852;5.672;2023-03-16T05:35:54;4.43;;;3.50;;
13607;SDS011;6875;50.852;5.672;2023-03-16T05:38:22;4.90;;;3.40;;
13607;SDS011;6875;50.852;5.672;2023-03-16T05:40:50;5.00;;;3.43;;
13607;SDS011;6875;50.852;5.672;2023-03-16T05:43:17;5.53;;;3.07;;
13607;SDS011;6875;50.852;5.672;2023-03-16T05:45:44;5.93;;;3.30;;
13607;SDS011;6875;50.852;5.672;2023-03-16T05:48:10;5.93;;;3.73;;
13607;SDS011;6875;50.852;5.672;2023-03-16T05:50:37;6.00;;;3.93;;
13607;SDS011;6875;50.852;5.672;2023-03-16T05:53:03;6.87;;;3.63;;
13607;SDS011;6875;50.852;5.672;2023-03-16T05:55:30;4.40;;;3.27;;
13607;SDS011;6875;50.852;5.672;2023-03-16T05:57:58;5.97;;;3.90;;
13607;SDS011;6875;50.852;5.672;2023-03-16T06:00:24;5.03;;;3.67;;
13607;SDS011;6875;50.852;5.672;2023-03-16T06:02:51;6.40;;;3.60;;
13607;SDS011;6875;50.852;5.672;2023-03-16T06:05:19;7.27;;;3.50;;
13607;SDS011;6875;50.852;5.672;2023-03-16T06:07:48;7.07;;;3.80;;
13607;SDS011;6875;50.852;5.672;2023-03-16T06:10:15;5.23;;;3.53;;
13607;SDS011;6875;50.852;5.672;2023-03-16T06:12:42;5.20;;;3.50;;
13607;SDS011;6875;50.852;5.672;2023-03-16T06:15:11;5.53;;;3.53;;
13607;SDS011;6875;50.852;5.672;2023-03-16T06:17:38;6.57;;;3.33;;
13607;SDS011;6875;50.852;5.672;2023-03-16T06:20:06;5.57;;;3.20;;
13607;SDS011;6875;50.852;5.672;2023-03-16T06:22:35;4.53;;;3.20;;
13607;SDS011;6875;50.852;5.672;2023-03-16T06:25:02;6.60;;;3.60;;
13607;SDS011;6875;50.852;5.672;2023-03-16T06:27:28;6.83;;;3.33;;
13607;SDS011;6875;50.852;5.672;2023-03-16T06:29:55;3.87;;;3.13;;
13607;SDS011;6875;50.852;5.672;2023-03-16T06:32:23;6.93;;;3.20;;
13607;SDS011;6875;50.852;5.672;2023-03-16T06:34:49;8.93;;;3.60;;
13607;SDS011;6875;50.852;5.672;2023-03-16T06:37:16;5.00;;;2.97;;
13607;SDS011;6875;50.852;5.672;2023-03-16T06:39:43;6.43;;;3.50;;
13607;SDS011;6875;50.852;5.672;2023-03-16T06:42:10;6.33;;;3.10;;
13607;SDS011;6875;50.852;5.672;2023-03-16T06:44:36;5.00;;;3.20;;
13607;SDS011;6875;50.852;5.672;2023-03-16T06:47:03;6.97;;;3.23;;
13607;SDS011;6875;50.852;5.672;2023-03-16T06:49:32;5.87;;;3.27;;
13607;SDS011;6875;50.852;5.672;2023-03-16T06:51:58;5.30;;;2.73;;
13607;SDS011;6875;50.852;5.672;2023-03-16T06:54:27;4.10;;;3.03;;
13607;SDS011;6875;50.852;5.672;2023-03-16T06:56:56;11.13;;;3.40;;
13607;SDS011;6875;50.852;5.672;2023-03-16T06:59:22;5.90;;;2.90;;
13607;SDS011;6875;50.852;5.672;2023-03-16T07:01:49;9.03;;;3.50;;
13607;SDS011;6875;50.852;5.672;2023-03-16T07:04:16;6.30;;;3.33;;
13607;SDS011;6875;50.852;5.672;2023-03-16T07:06:44;6.00;;;3.17;;
13607;SDS011;6875;50.852;5.672;2023-03-16T07:09:10;6.93;;;3.73;;
13607;SDS011;6875;50.852;5.672;2023-03-16T07:11:37;5.90;;;3.43;;
13607;SDS011;6875;50.852;5.672;2023-03-16T07:14:04;8.77;;;3.43;;
13607;SDS011;6875;50.852;5.672;2023-03-16T07:16:30;6.30;;;3.80;;
13607;SDS011;6875;50.852;5.672;2023-03-16T07:18:57;8.00;;;3.63;;
13607;SDS011;6875;50.852;5.672;2023-03-16T07:21:23;7.60;;;3.37;;
13607;SDS011;6875;50.852;5.672;2023-03-16T07:23:51;7.63;;;3.13;;
13607;SDS011;6875;50.852;5.672;2023-03-16T07:26:19;4.20;;;3.37;;
13607;SDS011;6875;50.852;5.672;2023-03-16T07:28:47;4.67;;;3.80;;
13607;SDS011;6875;50.852;5.672;2023-03-16T07:31:13;5.67;;;3.43;;
13607;SDS011;6875;50.852;5.672;2023-03-16T07:33:40;4.20;;;3.23;;
13607;SDS011;6875;50.852;5.672;2023-03-16T07:36:07;4.87;;;3.60;;
13607;SDS011;6875;50.852;5.672;2023-03-16T07:38:34;6.50;;;3.10;;
13607;SDS011;6875;50.852;5.672;2023-03-16T07:41:02;5.27;;;3.33;;
13607;SDS011;6875;50.852;5.672;2023-03-16T07:43:29;5.43;;;3.00;;
13607;SDS011;6875;50.852;5.672;2023-03-16T07:45:55;5.47;;;3.30;;
13607;SDS011;6875;50.852;5.672;2023-03-16T07:48:22;6.67;;;3.20;;
13607;SDS011;6875;50.852;5.672;2023-03-16T07:50:49;7.40;;;3.40;;
13607;SDS011;6875;50.852;5.672;2023-03-16T07:53:15;5.13;;;3.53;;
13607;SDS011;6875;50.852;5.672;2023-03-16T07:55:42;4.13;;;3.17;;
13607;SDS011;6875;50.852;5.672;2023-03-16T07:58:10;6.40;;;3.10;;
13607;SDS011;6875;50.852;5.672;2023-03-16T08:00:37;5.73;;;3.30;;
13607;SDS011;6875;50.852;5.672;2023-03-16T08:03:04;8.57;;;2.90;;
13607;SDS011;6875;50.852;5.672;2023-03-16T08:05:31;4.63;;;3.50;;
13607;SDS011;6875;50.852;5.672;2023-03-16T08:07:57;5.37;;;3.70;;
13607;SDS011;6875;50.852;5.672;2023-03-16T08:10:25;6.50;;;3.27;;
13607;SDS011;6875;50.852;5.672;2023-03-16T08:12:51;6.03;;;3.10;;
13607;SDS011;6875;50.852;5.672;2023-03-16T08:15:19;5.13;;;3.23;;
13607;SDS011;6875;50.852;5.672;2023-03-16T08:17:46;4.03;;;2.80;;
13607;SDS011;6875;50.852;5.672;2023-03-16T08:20:13;4.57;;;3.47;;
13607;SDS011;6875;50.852;5.672;2023-03-16T08:22:40;6.67;;;3.10;;
13607;SDS011;6875;50.852;5.672;2023-03-16T08:25:07;5.97;;;3.13;;
13607;SDS011;6875;50.852;5.672;2023-03-16T08:27:35;4.90;;;3.10;;
13607;SDS011;6875;50.852;5.672;2023-03-16T08:30:03;4.63;;;2.90;;
13607;SDS011;6875;50.852;5.672;2023-03-16T08:32:32;5.77;;;3.40;;
13607;SDS011;6875;50.852;5.672;2023-03-16T08:35:00;7.23;;;3.10;;
13607;SDS011;6875;50.852;5.672;2023-03-16T08:37:27;5.93;;;3.00;;
13607;SDS011;6875;50.852;5.672;2023-03-16T08:39:53;4.17;;;2.70;;
13607;SDS011;6875;50.852;5.672;2023-03-16T08:42:20;3.77;;;2.63;;
13607;SDS011;6875;50.852;5.672;2023-03-16T08:44:46;8.17;;;3.73;;
13607;SDS011;6875;50.852;5.672;2023-03-16T08:47:17;6.40;;;2.70;;
13607;SDS011;6875;50.852;5.672;2023-03-16T08:49:45;6.97;;;2.90;;
13607;SDS011;6875;50.852;5.672;2023-03-16T08:52:12;6.37;;;3.27;;
13607;SDS011;6875;50.852;5.672;2023-03-16T08:54:39;8.13;;;2.73;;
13607;SDS011;6875;50.852;5.672;2023-03-16T08:57:07;5.73;;;2.57;;
13607;SDS011;6875;50.852;5.672;2023-03-16T08:59:34;5.03;;;3.03;;
13607;SDS011;6875;50.852;5.672;2023-03-16T09:02:01;5.50;;;2.73;;
13607;SDS011;6875;50.852;5.672;2023-03-16T09:04:28;6.10;;;2.50;;
13607;SDS011;6875;50.852;5.672;2023-03-16T09:06:56;4.37;;;2.70;;
13607;SDS011;6875;50.852;5.672;2023-03-16T09:09:23;4.40;;;2.57;;
13607;SDS011;6875;50.852;5.672;2023-03-16T09:11:50;8.20;;;2.90;;
13607;SDS011;6875;50.852;5.672;2023-03-16T09:14:17;3.83;;;2.53;;
13607;SDS011;6875;50.852;5.672;2023-03-16T09:16:44;4.30;;;2.73;;
13607;SDS011;6875;50.852;5.672;2023-03-16T09:19:10;3.43;;;2.50;;
13607;SDS011;6875;50.852;5.672;2023-03-16T09:21:37;4.57;;;2.57;;
13607;SDS011;6875;50.852;5.672;2023-03-16T09:24:05;3.77;;;2.40;;
13607;SDS011;6875;50.852;5.672;2023-03-16T09:26:33;5.23;;;2.73;;
13607;SDS011;6875;50.852;5.672;2023-03-16T09:28:59;5.83;;;2.97;;
13607;SDS011;6875;50.852;5.672;2023-03-16T09:31:26;5.23;;;2.90;;
13607;SDS011;6875;50.852;5.672;2023-03-16T09:33:53;5.90;;;2.60;;
13607;SDS011;6875;50.852;5.672;2023-03-16T09:36:19;3.20;;;2.90;;
13607;SDS011;6875;50.852;5.672;2023-03-16T09:38:46;6.87;;;3.40;;
13607;SDS011;6875;50.852;5.672;2023-03-16T09:41:20;3.33;;;2.80;;
13607;SDS011;6875;50.852;5.672;2023-03-16T09:43:59;5.80;;;2.90;;
13607;SDS011;6875;50.852;5.672;2023-03-16T09:46:30;4.70;;;2.40;;
13607;SDS011;6875;50.852;5.672;2023-03-16T09:49:00;3.20;;;2.53;;
13607;SDS011;6875;50.852;5.672;2023-03-16T09:51:32;7.70;;;3.40;;
13607;SDS011;6875;50.852;5.672;2023-03-16T09:54:02;4.30;;;2.80;;
13607;SDS011;6875;50.852;5.672;2023-03-16T09:56:34;6.43;;;3.03;;
13607;SDS011;6875;50.852;5.672;2023-03-16T09:59:08;5.77;;;2.70;;
13607;SDS011;6875;50.852;5.672;2023-03-16T10:01:37;5.20;;;2.30;;
13607;SDS011;6875;50.852;5.672;2023-03-16T10:04:10;5.13;;;2.43;;
13607;SDS011;6875;50.852;5.672;2023-03-16T10:06:45;4.33;;;2.53;;
13607;SDS011;6875;50.852;5.672;2023-03-16T10:09:16;2.70;;;2.17;;
13607;SDS011;6875;50.852;5.672;2023-03-16T10:11:51;2.57;;;2.10;;
13607;SDS011;6875;50.852;5.672;2023-03-16T10:14:20;3.93;;;2.00;;
13607;SDS011;6875;50.852;5.672;2023-03-16T10:16:49;6.33;;;2.37;;
13607;SDS011;6875;50.852;5.672;2023-03-16T10:19:19;4.83;;;2.37;;
13607;SDS011;6875;50.852;5.672;2023-03-16T10:21:47;4.47;;;2.13;;
13607;SDS011;6875;50.852;5.672;2023-03-16T10:24:19;6.43;;;2.40;;
13607;SDS011;6875;50.852;5.672;2023-03-16T10:26:54;3.83;;;2.00;;
13607;SDS011;6875;50.852;5.672;2023-03-16T10:29:24;5.97;;;2.30;;
13607;SDS011;6875;50.852;5.672;2023-03-16T10:31:51;4.77;;;2.17;;
13607;SDS011;6875;50.852;5.672;2023-03-16T10:34:20;4.43;;;2.40;;
13607;SDS011;6875;50.852;5.672;2023-03-16T10:36:47;4.27;;;2.13;;
13607;SDS011;6875;50.852;5.672;2023-03-16T10:39:15;4.43;;;2.20;;
13607;SDS011;6875;50.852;5.672;2023-03-16T10:41:43;4.53;;;1.80;;
13607;SDS011;6875;50.852;5.672;2023-03-16T10:44:12;3.67;;;1.90;;
13607;SDS011;6875;50.852;5.672;2023-03-16T10:46:41;4.10;;;2.10;;
13607;SDS011;6875;50.852;5.672;2023-03-16T10:49:22;7.40;;;2.00;;
13607;SDS011;6875;50.852;5.672;2023-03-16T10:51:51;3.77;;;1.83;;
13607;SDS011;6875;50.852;5.672;2023-03-16T10:54:21;2.80;;;1.70;;
13607;SDS011;6875;50.852;5.672;2023-03-16T10:56:50;4.20;;;1.70;;
13607;SDS011;6875;50.852;5.672;2023-03-16T10:59:25;6.23;;;2.27;;
13607;SDS011;6875;50.852;5.672;2023-03-16T11:01:53;4.33;;;1.97;;
13607;SDS011;6875;50.852;5.672;2023-03-16T11:04:20;2.70;;;2.03;;
13607;SDS011;6875;50.852;5.672;2023-03-16T11:06:47;3.87;;;1.90;;
13607;SDS011;6875;50.852;5.672;2023-03-16T11:09:18;3.30;;;1.67;;
13607;SDS011;6875;50.852;5.672;2023-03-16T11:11:47;3.10;;;1.70;;
13607;SDS011;6875;50.852;5.672;2023-03-16T11:14:14;2.77;;;1.90;;
13607;SDS011;6875;50.852;5.672;2023-03-16T11:16:46;2.47;;;1.53;;
13607;SDS011;6875;50.852;5.672;2023-03-16T11:19:16;3.27;;;1.83;;
13607;SDS011;6875;50.852;5.672;2023-03-16T11:21:46;5.07;;;2.03;;
13607;SDS011;6875;50.852;5.672;2023-03-16T11:24:16;6.40;;;1.87;;
13607;SDS011;6875;50.852;5.672;2023-03-16T11:26:47;5.47;;;2.07;;
13607;SDS011;6875;50.852;5.672;2023-03-16T11:29:20;1.80;;;1.50;;
13607;SDS011;6875;50.852;5.672;2023-03-16T11:31:52;4.17;;;1.40;;
13607;SDS011;6875;50.852;5.672;2023-03-16T11:34:21;3.40;;;1.53;;
13607;SDS011;6875;50.852;5.672;2023-03-16T11:36:50;4.40;;;1.53;;
13607;SDS011;6875;50.852;5.672;2023-03-16T11:39:25;5.50;;;1.47;;
13607;SDS011;6875;50.852;5.672;2023-03-16T11:41:58;1.10;;;1.00;;
13607;SDS011;6875;50.852;5.672;2023-03-16T11:44:32;4.00;;;1.50;;
13607;SDS011;6875;50.852;5.672;2023-03-16T11:47:07;3.90;;;1.57;;
13607;SDS011;6875;50.852;5.672;2023-03-16T11:49:49;5.73;;;1.40;;
13607;SDS011;6875;50.852;5.672;2023-03-16T11:52:27;3.73;;;1.47;;
13607;SDS011;6875;50.852;5.672;2023-03-16T11:55:02;3.43;;;1.70;;
13607;SDS011;6875;50.852;5.672;2023-03-16T11:57:37;1.90;;;1.30;;
13607;SDS011;6875;50.852;5.672;2023-03-16T12:00:13;2.20;;;1.30;;
13607;SDS011;6875;50.852;5.672;2023-03-16T12:02:51;2.23;;;1.37;;
13607;SDS011;6875;50.852;5.672;2023-03-16T12:11:19;2.90;;;1.50;;
13607;SDS011;6875;50.852;5.672;2023-03-16T12:13:55;5.67;;;1.80;;
13607;SDS011;6875;50.852;5.672;2023-03-16T12:16:27;2.77;;;1.53;;
13607;SDS011;6875;50.852;5.672;2023-03-16T12:18:58;3.43;;;1.87;;
13607;SDS011;6875;50.852;5.672;2023-03-16T12:21:27;4.00;;;1.23;;
13607;SDS011;6875;50.852;5.672;2023-03-16T12:23:57;3.30;;;1.50;;
13607;SDS011;6875;50.852;5.672;2023-03-16T12:26:26;5.27;;;1.60;;
13607;SDS011;6875;50.852;5.672;2023-03-16T12:28:55;4.00;;;1.43;;
13607;SDS011;6875;50.852;5.672;2023-03-16T12:31:22;2.37;;;1.37;;
13607;SDS011;6875;50.852;5.672;2023-03-16T12:34:00;3.50;;;1.23;;
13607;SDS011;6875;50.852;5.672;2023-03-16T12:36:49;4.10;;;1.13;;
13607;SDS011;6875;50.852;5.672;2023-03-16T12:39:23;2.27;;;1.30;;
13607;SDS011;6875;50.852;5.672;2023-03-16T12:42:01;1.80;;;1.07;;
13607;SDS011;6875;50.852;5.672;2023-03-16T12:44:33;3.23;;;1.30;;
13607;SDS011;6875;50.852;5.672;2023-03-16T12:47:03;1.70;;;1.10;;
13607;SDS011;6875;50.852;5.672;2023-03-16T12:49:36;3.17;;;1.20;;
13607;SDS011;6875;50.852;5.672;2023-03-16T12:52:04;3.33;;;1.10;;
13607;SDS011;6875;50.852;5.672;2023-03-16T12:54:31;3.97;;;1.30;;
13607;SDS011;6875;50.852;5.672;2023-03-16T12:56:59;1.93;;;1.20;;
13607;SDS011;6875;50.852;5.672;2023-03-16T12:59:34;3.03;;;1.17;;
13607;SDS011;6875;50.852;5.672;2023-03-16T13:02:02;2.63;;;1.03;;
13607;SDS011;6875;50.852;5.672;2023-03-16T13:04:31;2.90;;;1.33;;
13607;SDS011;6875;50.852;5.672;2023-03-16T13:07:01;3.00;;;1.17;;
13607;SDS011;6875;50.852;5.672;2023-03-16T13:09:29;4.93;;;1.30;;
13607;SDS011;6875;50.852;5.672;2023-03-16T13:11:56;2.60;;;1.23;;
13607;SDS011;6875;50.852;5.672;2023-03-16T13:14:31;3.80;;;1.47;;
13607;SDS011;6875;50.852;5.672;2023-03-16T13:17:04;4.60;;;1.30;;
13607;SDS011;6875;50.852;5.672;2023-03-16T13:19:32;4.47;;;1.27;;
13607;SDS011;6875;50.852;5.672;2023-03-16T13:22:17;5.10;;;1.10;;
13607;SDS011;6875;50.852;5.672;2023-03-16T13:24:52;4.10;;;1.27;;
13607;SDS011;6875;50.852;5.672;2023-03-16T13:27:20;2.10;;;1.00;;
13607;SDS011;6875;50.852;5.672;2023-03-16T13:29:53;4.13;;;1.30;;
13607;SDS011;6875;50.852;5.672;2023-03-16T13:32:20;3.30;;;1.40;;
13607;SDS011;6875;50.852;5.672;2023-03-16T13:34:48;6.23;;;1.80;;
13607;SDS011;6875;50.852;5.672;2023-03-16T13:37:18;3.37;;;1.23;;
13607;SDS011;6875;50.852;5.672;2023-03-16T13:39:50;2.90;;;1.20;;
13607;SDS011;6875;50.852;5.672;2023-03-16T13:42:18;3.87;;;1.40;;
13607;SDS011;6875;50.852;5.672;2023-03-16T13:44:46;2.30;;;1.10;;
13607;SDS011;6875;50.852;5.672;2023-03-16T13:47:13;4.17;;;1.37;;
13607;SDS011;6875;50.852;5.672;2023-03-16T13:49:44;2.13;;;1.10;;
13607;SDS011;6875;50.852;5.672;2023-03-16T13:52:13;4.53;;;1.50;;
13607;SDS011;6875;50.852;5.672;2023-03-16T13:54:41;4.80;;;1.57;;
13607;SDS011;6875;50.852;5.672;2023-03-16T13:57:08;2.00;;;1.13;;
13607;SDS011;6875;50.852;5.672;2023-03-16T13:59:36;1.27;;;0.90;;
13607;SDS011;6875;50.852;5.672;2023-03-16T14:02:08;1.87;;;1.30;;
13607;SDS011;6875;50.852;5.672;2023-03-16T14:04:42;2.93;;;1.33;;
13607;SDS011;6875;50.852;5.672;2023-03-16T14:07:12;3.23;;;1.10;;
13607;SDS011;6875;50.852;5.672;2023-03-16T14:09:42;2.23;;;1.20;;
13607;SDS011;6875;50.852;5.672;2023-03-16T14:12:12;2.03;;;1.07;;
13607;SDS011;6875;50.852;5.672;2023-03-16T14:14:39;2.70;;;1.40;;
13607;SDS011;6875;50.852;5.672;2023-03-16T14:17:08;2.70;;;1.10;;
13607;SDS011;6875;50.852;5.672;2023-03-16T14:19:38;3.00;;;1.20;;
13607;SDS011;6875;50.852;5.672;2023-03-16T14:22:11;2.20;;;1.10;;
13607;SDS011;6875;50.852;5.672;2023-03-16T14:24:39;1.30;;;0.97;;
13607;SDS011;6875;50.852;5.672;2023-03-16T14:27:24;2.00;;;1.20;;
13607;SDS011;6875;50.852;5.672;2023-03-16T14:29:53;1.27;;;1.03;;
13607;SDS011;6875;50.852;5.672;2023-03-16T14:32:24;3.13;;;1.23;;
13607;SDS011;6875;50.852;5.672;2023-03-16T14:34:59;2.30;;;1.13;;
13607;SDS011;6875;50.852;5.672;2023-03-16T14:37:35;4.83;;;1.30;;
13607;SDS011;6875;50.852;5.672;2023-03-16T14:40:03;3.63;;;1.07;;
13607;SDS011;6875;50.852;5.672;2023-03-16T14:42:32;3.20;;;1.27;;
13607;SDS011;6875;50.852;5.672;2023-03-16T14:45:00;4.87;;;1.23;;
13607;SDS011;6875;50.852;5.672;2023-03-16T14:47:30;3.33;;;1.17;;
13607;SDS011;6875;50.852;5.672;2023-03-16T14:50:02;3.33;;;1.40;;
13607;SDS011;6875;50.852;5.672;2023-03-16T14:52:32;3.23;;;1.10;;
13607;SDS011;6875;50.852;5.672;2023-03-16T14:54:59;3.73;;;1.07;;
13607;SDS011;6875;50.852;5.672;2023-03-16T14:57:27;3.07;;;1.30;;
13607;SDS011;6875;50.852;5.672;2023-03-16T14:59:55;3.50;;;1.20;;
13607;SDS011;6875;50.852;5.672;2023-03-16T15:02:24;3.37;;;0.97;;
13607;SDS011;6875;50.852;5.672;2023-03-16T15:04:52;2.93;;;1.10;;
13607;SDS011;6875;50.852;5.672;2023-03-16T15:07:21;1.43;;;1.03;;
13607;SDS011;6875;50.852;5.672;2023-03-16T15:09:49;1.97;;;1.10;;
13607;SDS011;6875;50.852;5.672;2023-03-16T15:12:17;2.27;;;1.00;;
13607;SDS011;6875;50.852;5.672;2023-03-16T15:14:44;2.60;;;1.30;;